sensor_id;sensor_type;location;lat;lon;timestamp;temperature;humidity
37528;DHT22;23372;52.050;4.810;2022-12-11T00:00:09;2.40;99.90
37528;DHT22;23372;52.050;4.810;2022-12-11T00:02:36;2.40;99.90
37528;DHT22;23372;52.050;4.810;2022-12-11T00:05:01;2.40;99.90
37528;DHT22;23372;52.050;4.810;2022-12-11T00:07:27;2.40;99.90
37528;DHT22;23372;52.050;4.810;2022-12-11T00:09:52;2.50;99.90
37528;DHT22;23372;52.050;4.810;2022-12-11T00:12:18;2.50;99.90
37528;DHT22;23372;52.050;4.810;2022-12-11T00:14:43;2.50;99.90
37528;DHT22;23372;52.050;4.810;2022-12-11T00:17:09;2.50;99.90
37528;DHT22;23372;52.050;4.810;2022-12-11T00:19:34;2.50;99.90
37528;DHT22;23372;52.050;4.810;2022-12-11T00:22:00;2.40;99.90
37528;DHT22;23372;52.050;4.810;2022-12-11T00:24:25;2.50;99.90
37528;DHT22;23372;52.050;4.810;2022-12-11T00:26:51;2.50;99.90
37528;DHT22;23372;52.050;4.810;2022-12-11T00:29:17;2.50;99.90
37528;DHT22;23372;52.050;4.810;2022-12-11T00:31:42;2.60;99.90
37528;DHT22;23372;52.050;4.810;2022-12-11T00:34:09;2.50;99.90
37528;DHT22;23372;52.050;4.810;2022-12-11T00:36:37;2.50;99.90
37528;DHT22;23372;52.050;4.810;2022-12-11T00:39:03;2.50;99.90
37528;DHT22;23372;52.050;4.810;2022-12-11T00:41:29;2.50;99.90
37528;DHT22;23372;52.050;4.810;2022-12-11T00:43:55;2.50;99.90
37528;DHT22;23372;52.050;4.810;2022-12-11T00:46:21;2.50;99.90
37528;DHT22;23372;52.050;4.810;2022-12-11T00:48:46;2.50;99.90
37528;DHT22;23372;52.050;4.810;2022-12-11T00:51:15;2.50;99.90
37528;DHT22;23372;52.050;4.810;2022-12-11T00:53:41;2.50;99.90
37528;DHT22;23372;52.050;4.810;2022-12-11T00:56:15;2.50;99.90
37528;DHT22;23372;52.050;4.810;2022-12-11T00:58:41;2.50;99.90
37528;DHT22;23372;52.050;4.810;2022-12-11T01:01:13;2.50;99.90
37528;DHT22;23372;52.050;4.810;2022-12-11T01:03:39;2.60;99.90
37528;DHT22;23372;52.050;4.810;2022-12-11T01:06:05;2.50;99.90
37528;DHT22;23372;52.050;4.810;2022-12-11T01:08:32;2.60;99.90
37528;DHT22;23372;52.050;4.810;2022-12-11T01:11:06;2.60;99.90
37528;DHT22;23372;52.050;4.810;2022-12-11T01:13:32;2.50;99.90
37528;DHT22;23372;52.050;4.810;2022-12-11T01:15:57;2.50;99.90
37528;DHT22;23372;52.050;4.810;2022-12-11T01:18:23;2.50;99.90
37528;DHT22;23372;52.050;4.810;2022-12-11T01:20:49;2.60;99.90
37528;DHT22;23372;52.050;4.810;2022-12-11T01:23:15;2.50;99.90
37528;DHT22;23372;52.050;4.810;2022-12-11T01:25:41;2.50;99.90
37528;DHT22;23372;52.050;4.810;2022-12-11T01:28:08;2.50;99.90
37528;DHT22;23372;52.050;4.810;2022-12-11T01:30:35;2.50;99.90
37528;DHT22;23372;52.050;4.810;2022-12-11T01:33:01;2.50;99.90
37528;DHT22;23372;52.050;4.810;2022-12-11T01:35:27;2.50;99.90
37528;DHT22;23372;52.050;4.810;2022-12-11T01:37:53;2.50;99.90
37528;DHT22;23372;52.050;4.810;2022-12-11T01:40:19;2.50;99.90
37528;DHT22;23372;52.050;4.810;2022-12-11T01:42:45;2.50;99.90
37528;DHT22;23372;52.050;4.810;2022-12-11T01:45:31;2.40;99.90
37528;DHT22;23372;52.050;4.810;2022-12-11T01:48:18;2.50;99.90
37528;DHT22;23372;52.050;4.810;2022-12-11T01:51:04;2.50;99.90
37528;DHT22;23372;52.050;4.810;2022-12-11T01:53:35;2.40;99.90
37528;DHT22;23372;52.050;4.810;2022-12-11T01:56:02;2.40;99.90
37528;DHT22;23372;52.050;4.810;2022-12-11T01:58:31;2.50;99.90
37528;DHT22;23372;52.050;4.810;2022-12-11T02:00:59;2.50;99.90
37528;DHT22;23372;52.050;4.810;2022-12-11T02:03:25;2.50;99.90
37528;DHT22;23372;52.050;4.810;2022-12-11T02:05:51;2.50;99.90
37528;DHT22;23372;52.050;4.810;2022-12-11T02:08:17;2.50;99.90
37528;DHT22;23372;52.050;4.810;2022-12-11T02:11:10;2.40;99.90
37528;DHT22;23372;52.050;4.810;2022-12-11T02:13:59;2.40;99.90
37528;DHT22;23372;52.050;4.810;2022-12-11T02:16:34;2.40;99.90
37528;DHT22;23372;52.050;4.810;2022-12-11T02:21:42;2.40;99.90
37528;DHT22;23372;52.050;4.810;2022-12-11T02:24:24;2.40;99.90
37528;DHT22;23372;52.050;4.810;2022-12-11T02:29:51;2.50;99.90
37528;DHT22;23372;52.050;4.810;2022-12-11T02:32:33;2.50;99.90
37528;DHT22;23372;52.050;4.810;2022-12-11T02:35:12;2.50;99.90
37528;DHT22;23372;52.050;4.810;2022-12-11T02:37:42;2.50;99.90
37528;DHT22;23372;52.050;4.810;2022-12-11T02:40:11;2.50;99.90
37528;DHT22;23372;52.050;4.810;2022-12-11T02:42:39;2.50;99.90
37528;DHT22;23372;52.050;4.810;2022-12-11T02:45:08;2.50;99.90
37528;DHT22;23372;52.050;4.810;2022-12-11T02:47:37;2.50;99.90
37528;DHT22;23372;52.050;4.810;2022-12-11T02:50:08;2.40;99.90
37528;DHT22;23372;52.050;4.810;2022-12-11T02:52:35;2.40;99.90
37528;DHT22;23372;52.050;4.810;2022-12-11T02:55:02;2.50;99.90
37528;DHT22;23372;52.050;4.810;2022-12-11T03:00:17;2.50;99.90
37528;DHT22;23372;52.050;4.810;2022-12-11T03:02:44;2.40;99.90
37528;DHT22;23372;52.050;4.810;2022-12-11T03:05:11;2.40;99.90
37528;DHT22;23372;52.050;4.810;2022-12-11T03:07:39;2.40;99.90
37528;DHT22;23372;52.050;4.810;2022-12-11T03:10:07;2.40;99.90
37528;DHT22;23372;52.050;4.810;2022-12-11T03:12:38;2.40;99.90
37528;DHT22;23372;52.050;4.810;2022-12-11T03:15:07;2.40;99.90
37528;DHT22;23372;52.050;4.810;2022-12-11T03:20:21;2.40;99.90
37528;DHT22;23372;52.050;4.810;2022-12-11T03:23:04;2.50;99.90
37528;DHT22;23372;52.050;4.810;2022-12-11T03:25:55;2.40;99.90
37528;DHT22;23372;52.050;4.810;2022-12-11T03:28:44;2.40;99.90
37528;DHT22;23372;52.050;4.810;2022-12-11T03:31:17;2.40;99.90
37528;DHT22;23372;52.050;4.810;2022-12-11T03:33:46;2.50;99.90
37528;DHT22;23372;52.050;4.810;2022-12-11T03:36:19;2.50;99.90
37528;DHT22;23372;52.050;4.810;2022-12-11T03:38:49;2.50;99.90
37528;DHT22;23372;52.050;4.810;2022-12-11T03:41:18;2.50;99.90
37528;DHT22;23372;52.050;4.810;2022-12-11T03:43:44;2.50;99.90
37528;DHT22;23372;52.050;4.810;2022-12-11T03:46:12;2.40;99.90
37528;DHT22;23372;52.050;4.810;2022-12-11T03:48:41;2.40;99.90
37528;DHT22;23372;52.050;4.810;2022-12-11T03:51:07;2.40;99.90
37528;DHT22;23372;52.050;4.810;2022-12-11T03:53:35;2.40;99.90
37528;DHT22;23372;52.050;4.810;2022-12-11T03:56:03;2.40;99.90
37528;DHT22;23372;52.050;4.810;2022-12-11T03:58:30;2.40;99.90
37528;DHT22;23372;52.050;4.810;2022-12-11T04:00:55;2.40;99.90
37528;DHT22;23372;52.050;4.810;2022-12-11T04:03:21;2.40;99.90
37528;DHT22;23372;52.050;4.810;2022-12-11T04:05:48;2.30;99.90
37528;DHT22;23372;52.050;4.810;2022-12-11T04:08:16;2.30;99.90
37528;DHT22;23372;52.050;4.810;2022-12-11T04:10:42;2.30;99.90
37528;DHT22;23372;52.050;4.810;2022-12-11T04:13:09;2.30;99.90
37528;DHT22;23372;52.050;4.810;2022-12-11T04:15:35;2.30;99.90
37528;DHT22;23372;52.050;4.810;2022-12-11T04:18:01;2.40;99.90
37528;DHT22;23372;52.050;4.810;2022-12-11T04:20:45;2.30;99.90
37528;DHT22;23372;52.050;4.810;2022-12-11T04:23:29;2.30;99.90
37528;DHT22;23372;52.050;4.810;2022-12-11T04:26:15;2.30;99.90
37528;DHT22;23372;52.050;4.810;2022-12-11T04:28:42;2.20;99.90
37528;DHT22;23372;52.050;4.810;2022-12-11T04:31:18;2.30;99.90
37528;DHT22;23372;52.050;4.810;2022-12-11T04:33:45;2.30;99.90
37528;DHT22;23372;52.050;4.810;2022-12-11T04:36:11;2.30;99.90
37528;DHT22;23372;52.050;4.810;2022-12-11T04:38:36;2.20;99.90
37528;DHT22;23372;52.050;4.810;2022-12-11T04:41:08;2.20;99.90
37528;DHT22;23372;52.050;4.810;2022-12-11T04:43:33;2.20;99.90
37528;DHT22;23372;52.050;4.810;2022-12-11T04:46:04;2.20;99.90
37528;DHT22;23372;52.050;4.810;2022-12-11T04:48:30;2.20;99.90
37528;DHT22;23372;52.050;4.810;2022-12-11T04:50:56;2.20;99.90
37528;DHT22;23372;52.050;4.810;2022-12-11T04:53:21;2.30;99.90
37528;DHT22;23372;52.050;4.810;2022-12-11T04:55:47;2.30;99.90
37528;DHT22;23372;52.050;4.810;2022-12-11T04:58:12;2.30;99.90
37528;DHT22;23372;52.050;4.810;2022-12-11T05:00:39;2.30;99.90
37528;DHT22;23372;52.050;4.810;2022-12-11T05:03:05;2.30;99.90
37528;DHT22;23372;52.050;4.810;2022-12-11T05:05:31;2.30;99.90
37528;DHT22;23372;52.050;4.810;2022-12-11T05:07:56;2.30;99.90
37528;DHT22;23372;52.050;4.810;2022-12-11T05:10:22;2.30;99.90
37528;DHT22;23372;52.050;4.810;2022-12-11T05:12:47;2.20;99.90
37528;DHT22;23372;52.050;4.810;2022-12-11T05:15:13;2.20;99.90
37528;DHT22;23372;52.050;4.810;2022-12-11T05:17:39;2.20;99.90
37528;DHT22;23372;52.050;4.810;2022-12-11T05:20:05;2.20;99.90
37528;DHT22;23372;52.050;4.810;2022-12-11T05:22:30;2.20;99.90
37528;DHT22;23372;52.050;4.810;2022-12-11T05:24:56;2.20;99.90
37528;DHT22;23372;52.050;4.810;2022-12-11T05:27:22;2.20;99.90
37528;DHT22;23372;52.050;4.810;2022-12-11T05:29:47;2.20;99.90
37528;DHT22;23372;52.050;4.810;2022-12-11T05:32:13;2.20;99.90
37528;DHT22;23372;52.050;4.810;2022-12-11T05:34:38;2.20;99.90
37528;DHT22;23372;52.050;4.810;2022-12-11T05:37:04;2.20;99.90
37528;DHT22;23372;52.050;4.810;2022-12-11T05:39:30;2.20;99.90
37528;DHT22;23372;52.050;4.810;2022-12-11T05:41:55;2.20;99.90
37528;DHT22;23372;52.050;4.810;2022-12-11T05:44:21;2.20;99.90
37528;DHT22;23372;52.050;4.810;2022-12-11T05:46:46;2.10;99.90
37528;DHT22;23372;52.050;4.810;2022-12-11T05:49:12;2.20;99.90
37528;DHT22;23372;52.050;4.810;2022-12-11T05:51:38;2.10;99.90
37528;DHT22;23372;52.050;4.810;2022-12-11T05:54:05;2.20;99.90
37528;DHT22;23372;52.050;4.810;2022-12-11T05:56:32;2.20;99.90
37528;DHT22;23372;52.050;4.810;2022-12-11T05:59:00;2.20;99.90
37528;DHT22;23372;52.050;4.810;2022-12-11T06:01:29;2.20;99.90
37528;DHT22;23372;52.050;4.810;2022-12-11T06:03:56;2.20;99.90
37528;DHT22;23372;52.050;4.810;2022-12-11T06:06:23;2.10;99.90
37528;DHT22;23372;52.050;4.810;2022-12-11T06:08:53;2.10;99.90
37528;DHT22;23372;52.050;4.810;2022-12-11T06:11:19;2.00;99.90
37528;DHT22;23372;52.050;4.810;2022-12-11T06:13:44;2.00;99.90
37528;DHT22;23372;52.050;4.810;2022-12-11T06:16:10;2.00;99.90
37528;DHT22;23372;52.050;4.810;2022-12-11T06:18:37;1.90;99.90
37528;DHT22;23372;52.050;4.810;2022-12-11T06:21:11;1.90;99.90
37528;DHT22;23372;52.050;4.810;2022-12-11T06:23:37;1.90;99.90
37528;DHT22;23372;52.050;4.810;2022-12-11T06:26:03;1.90;99.90
37528;DHT22;23372;52.050;4.810;2022-12-11T06:28:29;1.90;99.90
37528;DHT22;23372;52.050;4.810;2022-12-11T06:30:57;1.90;99.90
37528;DHT22;23372;52.050;4.810;2022-12-11T06:33:23;1.90;99.90
37528;DHT22;23372;52.050;4.810;2022-12-11T06:35:49;1.80;99.90
37528;DHT22;23372;52.050;4.810;2022-12-11T06:38:15;1.80;99.90
37528;DHT22;23372;52.050;4.810;2022-12-11T06:40:41;1.90;99.90
37528;DHT22;23372;52.050;4.810;2022-12-11T06:43:07;1.90;99.90
37528;DHT22;23372;52.050;4.810;2022-12-11T06:45:32;1.80;99.90
37528;DHT22;23372;52.050;4.810;2022-12-11T06:47:58;1.90;99.90
37528;DHT22;23372;52.050;4.810;2022-12-11T06:50:24;1.90;99.90
37528;DHT22;23372;52.050;4.810;2022-12-11T06:52:49;1.80;99.90
37528;DHT22;23372;52.050;4.810;2022-12-11T06:55:15;1.80;99.90
37528;DHT22;23372;52.050;4.810;2022-12-11T06:57:40;1.80;99.90
37528;DHT22;23372;52.050;4.810;2022-12-11T07:00:06;1.80;99.90
37528;DHT22;23372;52.050;4.810;2022-12-11T07:02:32;1.80;99.90
37528;DHT22;23372;52.050;4.810;2022-12-11T07:04:58;1.80;99.90
37528;DHT22;23372;52.050;4.810;2022-12-11T07:07:24;1.80;99.90
37528;DHT22;23372;52.050;4.810;2022-12-11T07:09:50;1.80;99.90
37528;DHT22;23372;52.050;4.810;2022-12-11T07:12:16;1.70;99.90
37528;DHT22;23372;52.050;4.810;2022-12-11T07:14:42;1.70;99.90
37528;DHT22;23372;52.050;4.810;2022-12-11T07:17:07;1.80;99.90
37528;DHT22;23372;52.050;4.810;2022-12-11T07:19:33;1.70;99.90
37528;DHT22;23372;52.050;4.810;2022-12-11T07:21:58;1.70;99.90
37528;DHT22;23372;52.050;4.810;2022-12-11T07:24:24;1.70;99.90
37528;DHT22;23372;52.050;4.810;2022-12-11T07:26:50;1.70;99.90
37528;DHT22;23372;52.050;4.810;2022-12-11T07:29:15;1.70;99.90
37528;DHT22;23372;52.050;4.810;2022-12-11T07:31:41;1.70;99.90
37528;DHT22;23372;52.050;4.810;2022-12-11T07:34:06;1.70;99.90
37528;DHT22;23372;52.050;4.810;2022-12-11T07:36:33;1.70;99.90
37528;DHT22;23372;52.050;4.810;2022-12-11T07:38:59;1.70;99.90
37528;DHT22;23372;52.050;4.810;2022-12-11T07:41:25;1.70;99.90
37528;DHT22;23372;52.050;4.810;2022-12-11T07:43:53;1.70;99.90
37528;DHT22;23372;52.050;4.810;2022-12-11T07:46:22;1.70;99.90
37528;DHT22;23372;52.050;4.810;2022-12-11T07:48:48;1.70;99.90
37528;DHT22;23372;52.050;4.810;2022-12-11T07:51:34;1.70;99.90
37528;DHT22;23372;52.050;4.810;2022-12-11T07:54:02;1.70;99.90
37528;DHT22;23372;52.050;4.810;2022-12-11T07:56:30;1.70;99.90
37528;DHT22;23372;52.050;4.810;2022-12-11T07:59:01;1.70;99.90
37528;DHT22;23372;52.050;4.810;2022-12-11T08:01:29;1.80;99.90
37528;DHT22;23372;52.050;4.810;2022-12-11T08:03:55;1.80;99.90
37528;DHT22;23372;52.050;4.810;2022-12-11T08:06:29;1.80;99.90
37528;DHT22;23372;52.050;4.810;2022-12-11T08:08:56;1.80;99.90
37528;DHT22;23372;52.050;4.810;2022-12-11T08:11:22;1.80;99.90
37528;DHT22;23372;52.050;4.810;2022-12-11T08:13:48;1.80;99.90
37528;DHT22;23372;52.050;4.810;2022-12-11T08:16:14;1.80;99.90
37528;DHT22;23372;52.050;4.810;2022-12-11T08:18:41;1.80;99.90
37528;DHT22;23372;52.050;4.810;2022-12-11T08:21:27;1.80;99.90
37528;DHT22;23372;52.050;4.810;2022-12-11T08:23:54;1.90;99.90
37528;DHT22;23372;52.050;4.810;2022-12-11T08:26:23;1.80;99.90
37528;DHT22;23372;52.050;4.810;2022-12-11T08:28:49;1.80;99.90
37528;DHT22;23372;52.050;4.810;2022-12-11T08:31:16;1.80;99.90
37528;DHT22;23372;52.050;4.810;2022-12-11T08:33:42;1.90;99.90
37528;DHT22;23372;52.050;4.810;2022-12-11T08:36:11;1.80;99.90
37528;DHT22;23372;52.050;4.810;2022-12-11T08:38:38;1.80;99.90
37528;DHT22;23372;52.050;4.810;2022-12-11T08:41:15;1.90;99.90
37528;DHT22;23372;52.050;4.810;2022-12-11T08:43:42;1.90;99.90
37528;DHT22;23372;52.050;4.810;2022-12-11T08:46:08;1.90;99.90
37528;DHT22;23372;52.050;4.810;2022-12-11T08:48:36;1.90;99.90
37528;DHT22;23372;52.050;4.810;2022-12-11T08:51:04;1.90;99.90
37528;DHT22;23372;52.050;4.810;2022-12-11T08:53:30;2.00;99.90
37528;DHT22;23372;52.050;4.810;2022-12-11T08:56:02;2.00;99.90
37528;DHT22;23372;52.050;4.810;2022-12-11T08:58:28;2.00;99.90
37528;DHT22;23372;52.050;4.810;2022-12-11T09:00:54;2.10;99.90
37528;DHT22;23372;52.050;4.810;2022-12-11T09:03:20;2.10;99.90
37528;DHT22;23372;52.050;4.810;2022-12-11T09:05:45;2.10;99.90
37528;DHT22;23372;52.050;4.810;2022-12-11T09:08:11;2.00;99.90
37528;DHT22;23372;52.050;4.810;2022-12-11T09:10:36;2.00;99.90
37528;DHT22;23372;52.050;4.810;2022-12-11T09:13:02;2.00;99.90
37528;DHT22;23372;52.050;4.810;2022-12-11T09:15:28;2.00;99.90
37528;DHT22;23372;52.050;4.810;2022-12-11T09:17:54;2.00;99.90
37528;DHT22;23372;52.050;4.810;2022-12-11T09:20:19;2.00;99.90
37528;DHT22;23372;52.050;4.810;2022-12-11T09:22:45;2.00;99.90
37528;DHT22;23372;52.050;4.810;2022-12-11T09:25:10;2.00;99.90
37528;DHT22;23372;52.050;4.810;2022-12-11T09:27:36;2.00;99.90
37528;DHT22;23372;52.050;4.810;2022-12-11T09:30:02;2.10;99.90
37528;DHT22;23372;52.050;4.810;2022-12-11T09:32:28;2.10;99.90
37528;DHT22;23372;52.050;4.810;2022-12-11T09:34:54;2.10;99.90
37528;DHT22;23372;52.050;4.810;2022-12-11T09:37:20;2.20;99.90
37528;DHT22;23372;52.050;4.810;2022-12-11T09:39:45;2.20;99.90
37528;DHT22;23372;52.050;4.810;2022-12-11T09:45:02;2.20;99.90
37528;DHT22;23372;52.050;4.810;2022-12-11T09:50:20;2.30;99.90
37528;DHT22;23372;52.050;4.810;2022-12-11T09:55:21;2.30;99.90
37528;DHT22;23372;52.050;4.810;2022-12-11T10:00:43;2.30;99.90
37528;DHT22;23372;52.050;4.810;2022-12-11T10:17:19;2.30;99.90
37528;DHT22;23372;52.050;4.810;2022-12-11T10:19:45;2.30;99.90
37528;DHT22;23372;52.050;4.810;2022-12-11T10:22:20;2.40;99.90
37528;DHT22;23372;52.050;4.810;2022-12-11T10:24:56;2.40;99.90
37528;DHT22;23372;52.050;4.810;2022-12-11T10:27:27;2.40;99.90
37528;DHT22;23372;52.050;4.810;2022-12-11T10:30:17;2.40;99.90
37528;DHT22;23372;52.050;4.810;2022-12-11T10:32:51;2.40;99.90
37528;DHT22;23372;52.050;4.810;2022-12-11T10:35:40;2.40;99.90
37528;DHT22;23372;52.050;4.810;2022-12-11T10:40:47;2.50;99.90
37528;DHT22;23372;52.050;4.810;2022-12-11T10:43:14;2.60;99.90
37528;DHT22;23372;52.050;4.810;2022-12-11T10:45:48;2.60;99.90
37528;DHT22;23372;52.050;4.810;2022-12-11T10:48:14;2.50;99.90
37528;DHT22;23372;52.050;4.810;2022-12-11T10:50:40;2.60;99.90
37528;DHT22;23372;52.050;4.810;2022-12-11T10:53:19;2.60;99.90
37528;DHT22;23372;52.050;4.810;2022-12-11T10:55:46;2.60;99.90
37528;DHT22;23372;52.050;4.810;2022-12-11T10:58:18;2.60;99.90
37528;DHT22;23372;52.050;4.810;2022-12-11T11:00:44;2.60;99.90
37528;DHT22;23372;52.050;4.810;2022-12-11T11:03:24;2.60;99.90
37528;DHT22;23372;52.050;4.810;2022-12-11T11:06:23;2.60;99.90
37528;DHT22;23372;52.050;4.810;2022-12-11T11:08:50;2.70;99.90
37528;DHT22;23372;52.050;4.810;2022-12-11T11:11:20;2.70;99.90
37528;DHT22;23372;52.050;4.810;2022-12-11T11:13:46;2.70;99.90
37528;DHT22;23372;52.050;4.810;2022-12-11T11:16:15;2.70;99.90
37528;DHT22;23372;52.050;4.810;2022-12-11T11:18:50;2.80;99.90
37528;DHT22;23372;52.050;4.810;2022-12-11T11:21:18;2.80;99.90
37528;DHT22;23372;52.050;4.810;2022-12-11T11:23:44;2.80;99.90
37528;DHT22;23372;52.050;4.810;2022-12-11T11:26:10;2.90;99.90
37528;DHT22;23372;52.050;4.810;2022-12-11T11:28:39;2.90;99.90
37528;DHT22;23372;52.050;4.810;2022-12-11T11:31:09;2.80;99.90
37528;DHT22;23372;52.050;4.810;2022-12-11T11:33:36;2.70;99.90
37528;DHT22;23372;52.050;4.810;2022-12-11T11:36:19;2.70;99.90
37528;DHT22;23372;52.050;4.810;2022-12-11T11:39:34;2.70;99.90
37528;DHT22;23372;52.050;4.810;2022-12-11T11:41:45;2.80;99.90
37528;DHT22;23372;52.050;4.810;2022-12-11T11:44:15;2.80;99.90
37528;DHT22;23372;52.050;4.810;2022-12-11T11:46:58;2.80;99.90
37528;DHT22;23372;52.050;4.810;2022-12-11T11:52:39;2.80;99.90
37528;DHT22;23372;52.050;4.810;2022-12-11T11:55:18;2.70;99.90
37528;DHT22;23372;52.050;4.810;2022-12-11T11:58:01;2.70;99.90
37528;DHT22;23372;52.050;4.810;2022-12-11T12:00:29;2.70;99.90
37528;DHT22;23372;52.050;4.810;2022-12-11T12:02:59;2.80;99.90
37528;DHT22;23372;52.050;4.810;2022-12-11T12:21:49;2.70;99.90
37528;DHT22;23372;52.050;4.810;2022-12-11T12:24:46;2.70;99.90
37528;DHT22;23372;52.050;4.810;2022-12-11T12:27:21;2.60;99.90
37528;DHT22;23372;52.050;4.810;2022-12-11T12:35:40;2.60;99.90
37528;DHT22;23372;52.050;4.810;2022-12-11T12:38:14;2.70;99.90
37528;DHT22;23372;52.050;4.810;2022-12-11T12:43:43;2.80;99.90
37528;DHT22;23372;52.050;4.810;2022-12-11T12:46:38;2.80;99.90
37528;DHT22;23372;52.050;4.810;2022-12-11T12:49:11;2.70;99.90
37528;DHT22;23372;52.050;4.810;2022-12-11T12:51:39;2.70;99.90
37528;DHT22;23372;52.050;4.810;2022-12-11T12:54:06;2.70;99.90
37528;DHT22;23372;52.050;4.810;2022-12-11T12:56:35;2.60;99.90
37528;DHT22;23372;52.050;4.810;2022-12-11T12:59:02;2.70;99.90
37528;DHT22;23372;52.050;4.810;2022-12-11T13:01:28;2.70;99.90
37528;DHT22;23372;52.050;4.810;2022-12-11T13:04:00;2.70;99.90
37528;DHT22;23372;52.050;4.810;2022-12-11T13:06:39;2.70;99.90
37528;DHT22;23372;52.050;4.810;2022-12-11T13:09:18;2.60;99.90
37528;DHT22;23372;52.050;4.810;2022-12-11T13:11:47;2.70;99.90
37528;DHT22;23372;52.050;4.810;2022-12-11T13:16:45;2.60;99.90
37528;DHT22;23372;52.050;4.810;2022-12-11T13:19:33;2.60;99.90
37528;DHT22;23372;52.050;4.810;2022-12-11T13:22:03;2.70;99.90
37528;DHT22;23372;52.050;4.810;2022-12-11T13:24:32;2.70;99.90
37528;DHT22;23372;52.050;4.810;2022-12-11T13:27:21;2.70;99.90
37528;DHT22;23372;52.050;4.810;2022-12-11T13:29:47;2.70;99.90
37528;DHT22;23372;52.050;4.810;2022-12-11T13:34:45;2.70;99.90
37528;DHT22;23372;52.050;4.810;2022-12-11T13:37:44;2.70;99.90
37528;DHT22;23372;52.050;4.810;2022-12-11T13:40:23;2.60;99.90
37528;DHT22;23372;52.050;4.810;2022-12-11T13:42:59;2.60;99.90
37528;DHT22;23372;52.050;4.810;2022-12-11T13:48:18;2.60;99.90
37528;DHT22;23372;52.050;4.810;2022-12-11T13:50:46;2.60;99.90
37528;DHT22;23372;52.050;4.810;2022-12-11T13:53:14;2.60;99.90
37528;DHT22;23372;52.050;4.810;2022-12-11T13:55:40;2.50;99.90
37528;DHT22;23372;52.050;4.810;2022-12-11T13:58:20;2.50;99.90
37528;DHT22;23372;52.050;4.810;2022-12-11T14:01:26;2.50;99.90
37528;DHT22;23372;52.050;4.810;2022-12-11T14:03:57;2.50;99.90
37528;DHT22;23372;52.050;4.810;2022-12-11T14:06:25;2.40;99.90
37528;DHT22;23372;52.050;4.810;2022-12-11T14:08:54;2.50;99.90
37528;DHT22;23372;52.050;4.810;2022-12-11T14:11:24;2.50;99.90
37528;DHT22;23372;52.050;4.810;2022-12-11T14:13:52;2.50;99.90
37528;DHT22;23372;52.050;4.810;2022-12-11T14:16:21;2.40;99.90
37528;DHT22;23372;52.050;4.810;2022-12-11T14:18:49;2.50;99.90
37528;DHT22;23372;52.050;4.810;2022-12-11T14:21:23;2.40;99.90
37528;DHT22;23372;52.050;4.810;2022-12-11T14:23:55;2.40;99.90
37528;DHT22;23372;52.050;4.810;2022-12-11T14:26:26;2.40;99.90
37528;DHT22;23372;52.050;4.810;2022-12-11T14:28:52;2.40;99.90
37528;DHT22;23372;52.050;4.810;2022-12-11T14:31:35;2.40;99.90
37528;DHT22;23372;52.050;4.810;2022-12-11T14:34:32;2.40;99.90
37528;DHT22;23372;52.050;4.810;2022-12-11T14:37:01;2.50;99.90
37528;DHT22;23372;52.050;4.810;2022-12-11T14:39:33;2.40;99.90
37528;DHT22;23372;52.050;4.810;2022-12-11T14:42:09;2.40;99.90
37528;DHT22;23372;52.050;4.810;2022-12-11T14:44:46;2.40;99.90
37528;DHT22;23372;52.050;4.810;2022-12-11T14:47:26;2.50;99.90
37528;DHT22;23372;52.050;4.810;2022-12-11T14:50:33;2.50;99.90
37528;DHT22;23372;52.050;4.810;2022-12-11T14:52:54;2.40;99.90
37528;DHT22;23372;52.050;4.810;2022-12-11T14:55:25;2.40;99.90
37528;DHT22;23372;52.050;4.810;2022-12-11T14:57:57;2.40;99.90
37528;DHT22;23372;52.050;4.810;2022-12-11T15:00:30;2.40;99.90
37528;DHT22;23372;52.050;4.810;2022-12-11T15:03:05;2.40;99.90
37528;DHT22;23372;52.050;4.810;2022-12-11T15:05:32;2.40;99.90
37528;DHT22;23372;52.050;4.810;2022-12-11T15:08:16;2.40;99.90
37528;DHT22;23372;52.050;4.810;2022-12-11T15:11:11;2.40;99.90
37528;DHT22;23372;52.050;4.810;2022-12-11T15:16:18;2.50;99.90
37528;DHT22;23372;52.050;4.810;2022-12-11T15:18:48;2.50;99.90
37528;DHT22;23372;52.050;4.810;2022-12-11T15:21:15;2.40;99.90
37528;DHT22;23372;52.050;4.810;2022-12-11T15:23:51;2.40;99.90
37528;DHT22;23372;52.050;4.810;2022-12-11T15:26:31;2.40;99.90
37528;DHT22;23372;52.050;4.810;2022-12-11T15:29:02;2.40;99.90
37528;DHT22;23372;52.050;4.810;2022-12-11T15:31:31;2.40;99.90
37528;DHT22;23372;52.050;4.810;2022-12-11T15:33:57;2.40;99.90
37528;DHT22;23372;52.050;4.810;2022-12-11T15:38:55;2.30;99.90
37528;DHT22;23372;52.050;4.810;2022-12-11T15:41:21;2.40;99.90
37528;DHT22;23372;52.050;4.810;2022-12-11T15:43:52;2.40;99.90
37528;DHT22;23372;52.050;4.810;2022-12-11T15:46:19;2.30;99.90
37528;DHT22;23372;52.050;4.810;2022-12-11T15:48:46;2.10;99.90
37528;DHT22;23372;52.050;4.810;2022-12-11T15:51:12;2.10;99.90
37528;DHT22;23372;52.050;4.810;2022-12-11T15:53:38;2.10;99.90
37528;DHT22;23372;52.050;4.810;2022-12-11T15:56:04;2.10;99.90
37528;DHT22;23372;52.050;4.810;2022-12-11T15:58:30;2.10;99.90
37528;DHT22;23372;52.050;4.810;2022-12-11T16:00:56;2.10;99.90
37528;DHT22;23372;52.050;4.810;2022-12-11T16:03:22;2.10;99.90
37528;DHT22;23372;52.050;4.810;2022-12-11T16:05:50;2.00;99.90
37528;DHT22;23372;52.050;4.810;2022-12-11T16:08:18;2.00;99.90
37528;DHT22;23372;52.050;4.810;2022-12-11T16:10:46;2.00;99.90
37528;DHT22;23372;52.050;4.810;2022-12-11T16:13:12;2.00;99.90
37528;DHT22;23372;52.050;4.810;2022-12-11T16:15:41;2.00;99.90
37528;DHT22;23372;52.050;4.810;2022-12-11T16:18:12;2.00;99.90
37528;DHT22;23372;52.050;4.810;2022-12-11T16:20:39;2.00;99.90
37528;DHT22;23372;52.050;4.810;2022-12-11T16:23:05;1.90;99.90
37528;DHT22;23372;52.050;4.810;2022-12-11T16:25:31;1.90;99.90
37528;DHT22;23372;52.050;4.810;2022-12-11T16:27:59;1.90;99.90
37528;DHT22;23372;52.050;4.810;2022-12-11T16:30:26;1.90;99.90
37528;DHT22;23372;52.050;4.810;2022-12-11T16:32:52;1.90;99.90
37528;DHT22;23372;52.050;4.810;2022-12-11T16:35:19;1.80;99.90
37528;DHT22;23372;52.050;4.810;2022-12-11T16:37:48;1.90;99.90
37528;DHT22;23372;52.050;4.810;2022-12-11T16:40:14;1.90;99.90
37528;DHT22;23372;52.050;4.810;2022-12-11T16:42:39;1.90;99.90
37528;DHT22;23372;52.050;4.810;2022-12-11T16:45:07;1.90;99.90
37528;DHT22;23372;52.050;4.810;2022-12-11T16:47:34;1.90;99.90
37528;DHT22;23372;52.050;4.810;2022-12-11T16:50:00;1.80;99.90
37528;DHT22;23372;52.050;4.810;2022-12-11T16:52:26;1.80;99.90
37528;DHT22;23372;52.050;4.810;2022-12-11T16:54:52;1.90;99.90
37528;DHT22;23372;52.050;4.810;2022-12-11T16:57:17;1.90;99.90
37528;DHT22;23372;52.050;4.810;2022-12-11T16:59:43;1.90;99.90
37528;DHT22;23372;52.050;4.810;2022-12-11T17:02:11;1.90;99.90
37528;DHT22;23372;52.050;4.810;2022-12-11T17:04:37;1.80;99.90
37528;DHT22;23372;52.050;4.810;2022-12-11T17:07:03;1.90;99.90
37528;DHT22;23372;52.050;4.810;2022-12-11T17:09:29;1.90;99.90
37528;DHT22;23372;52.050;4.810;2022-12-11T17:11:55;1.90;99.90
37528;DHT22;23372;52.050;4.810;2022-12-11T17:14:21;1.90;99.90
37528;DHT22;23372;52.050;4.810;2022-12-11T17:16:46;1.90;99.90
37528;DHT22;23372;52.050;4.810;2022-12-11T17:19:12;1.90;99.90